sensor_id;sensor_type;location;lat;lon;timestamp;P1;durP1;ratioP1;P2;durP2;ratioP2
49784;SDS011;35679;38.732;-121.358;2023-10-13T00:01:57;1.42;;;1.42;;
49784;SDS011;35679;38.732;-121.358;2023-10-13T00:04:48;1.25;;;1.25;;
49784;SDS011;35679;38.732;-121.358;2023-10-13T00:07:38;1.67;;;1.20;;
49784;SDS011;35679;38.732;-121.358;2023-10-13T00:10:28;1.30;;;1.30;;
49784;SDS011;35679;38.732;-121.358;2023-10-13T00:13:22;1.33;;;1.30;;
49784;SDS011;35679;38.732;-121.358;2023-10-13T00:16:11;1.30;;;1.30;;
49784;SDS011;35679;38.732;-121.358;2023-10-13T00:19:06;4.38;;;1.48;;
49784;SDS011;35679;38.732;-121.358;2023-10-13T00:21:57;1.40;;;1.40;;
49784;SDS011;35679;38.732;-121.358;2023-10-13T00:24:57;1.20;;;1.20;;
49784;SDS011;35679;38.732;-121.358;2023-10-13T00:27:52;1.30;;;1.30;;
49784;SDS011;35679;38.732;-121.358;2023-10-13T00:30:42;1.50;;;1.50;;
49784;SDS011;35679;38.732;-121.358;2023-10-13T00:33:40;1.25;;;1.25;;
49784;SDS011;35679;38.732;-121.358;2023-10-13T00:36:30;1.48;;;1.48;;
49784;SDS011;35679;38.732;-121.358;2023-10-13T00:42:12;1.77;;;1.45;;
49784;SDS011;35679;38.732;-121.358;2023-10-13T00:45:12;1.77;;;1.70;;
49784;SDS011;35679;38.732;-121.358;2023-10-13T00:48:05;1.60;;;1.50;;
49784;SDS011;35679;38.732;-121.358;2023-10-13T00:51:05;1.52;;;1.50;;
49784;SDS011;35679;38.732;-121.358;2023-10-13T00:53:56;1.67;;;1.60;;
49784;SDS011;35679;38.732;-121.358;2023-10-13T00:56:46;10.40;;;9.88;;
49784;SDS011;35679;38.732;-121.358;2023-10-13T00:59:37;9.93;;;9.50;;
49784;SDS011;35679;38.732;-121.358;2023-10-13T01:02:30;13.77;;;13.07;;
49784;SDS011;35679;38.732;-121.358;2023-10-13T01:05:25;11.95;;;11.45;;
49784;SDS011;35679;38.732;-121.358;2023-10-13T01:08:15;11.50;;;11.00;;
49784;SDS011;35679;38.732;-121.358;2023-10-13T01:11:04;14.05;;;13.20;;
49784;SDS011;35679;38.732;-121.358;2023-10-13T01:13:56;12.95;;;12.45;;
49784;SDS011;35679;38.732;-121.358;2023-10-13T01:16:46;12.77;;;12.18;;
49784;SDS011;35679;38.732;-121.358;2023-10-13T01:19:43;11.68;;;11.10;;
49784;SDS011;35679;38.732;-121.358;2023-10-13T01:22:34;11.88;;;11.30;;
49784;SDS011;35679;38.732;-121.358;2023-10-13T01:25:25;13.55;;;13.00;;
49784;SDS011;35679;38.732;-121.358;2023-10-13T01:28:16;13.00;;;12.30;;
49784;SDS011;35679;38.732;-121.358;2023-10-13T01:31:05;16.25;;;15.35;;
49784;SDS011;35679;38.732;-121.358;2023-10-13T01:33:57;14.60;;;14.00;;
49784;SDS011;35679;38.732;-121.358;2023-10-13T01:39:39;7.90;;;7.60;;
49784;SDS011;35679;38.732;-121.358;2023-10-13T01:42:29;8.70;;;8.38;;
49784;SDS011;35679;38.732;-121.358;2023-10-13T01:45:18;13.00;;;12.40;;
49784;SDS011;35679;38.732;-121.358;2023-10-13T01:48:08;5.65;;;5.38;;
49784;SDS011;35679;38.732;-121.358;2023-10-13T01:50:58;6.75;;;6.35;;
49784;SDS011;35679;38.732;-121.358;2023-10-13T01:53:54;8.50;;;8.10;;
49784;SDS011;35679;38.732;-121.358;2023-10-13T01:56:46;11.27;;;10.68;;
49784;SDS011;35679;38.732;-121.358;2023-10-13T01:59:37;8.73;;;8.40;;
49784;SDS011;35679;38.732;-121.358;2023-10-13T02:02:32;24.83;;;23.63;;
49784;SDS011;35679;38.732;-121.358;2023-10-13T02:05:21;29.02;;;27.63;;
49784;SDS011;35679;38.732;-121.358;2023-10-13T02:08:16;29.10;;;27.70;;
49784;SDS011;35679;38.732;-121.358;2023-10-13T02:11:14;28.88;;;27.48;;
49784;SDS011;35679;38.732;-121.358;2023-10-13T02:14:07;27.88;;;26.58;;
49784;SDS011;35679;38.732;-121.358;2023-10-13T02:16:59;24.13;;;22.92;;
49784;SDS011;35679;38.732;-121.358;2023-10-13T02:20:15;29.58;;;27.98;;
49784;SDS011;35679;38.732;-121.358;2023-10-13T02:23:04;31.60;;;30.00;;
49784;SDS011;35679;38.732;-121.358;2023-10-13T02:26:01;30.80;;;29.15;;
49784;SDS011;35679;38.732;-121.358;2023-10-13T02:28:59;27.08;;;25.65;;
49784;SDS011;35679;38.732;-121.358;2023-10-13T02:31:56;29.23;;;27.83;;
49784;SDS011;35679;38.732;-121.358;2023-10-13T02:34:46;29.35;;;27.85;;
49784;SDS011;35679;38.732;-121.358;2023-10-13T02:37:35;31.00;;;29.40;;
49784;SDS011;35679;38.732;-121.358;2023-10-13T02:40:25;29.45;;;27.95;;
49784;SDS011;35679;38.732;-121.358;2023-10-13T02:43:14;29.50;;;28.00;;
49784;SDS011;35679;38.732;-121.358;2023-10-13T02:46:04;30.90;;;29.30;;
49784;SDS011;35679;38.732;-121.358;2023-10-13T02:48:54;30.80;;;29.10;;
49784;SDS011;35679;38.732;-121.358;2023-10-13T02:51:47;30.55;;;29.05;;
49784;SDS011;35679;38.732;-121.358;2023-10-13T02:54:41;30.58;;;28.98;;
49784;SDS011;35679;38.732;-121.358;2023-10-13T02:57:36;30.25;;;28.75;;
49784;SDS011;35679;38.732;-121.358;2023-10-13T03:00:26;30.40;;;28.90;;
49784;SDS011;35679;38.732;-121.358;2023-10-13T03:03:20;30.52;;;28.92;;
49784;SDS011;35679;38.732;-121.358;2023-10-13T03:06:11;30.95;;;29.35;;
49784;SDS011;35679;38.732;-121.358;2023-10-13T03:09:07;31.05;;;29.45;;
49784;SDS011;35679;38.732;-121.358;2023-10-13T03:12:09;31.50;;;29.80;;
49784;SDS011;35679;38.732;-121.358;2023-10-13T03:14:58;30.92;;;29.23;;
49784;SDS011;35679;38.732;-121.358;2023-10-13T03:18:03;31.45;;;29.75;;
49784;SDS011;35679;38.732;-121.358;2023-10-13T03:20:53;30.75;;;29.20;;
49784;SDS011;35679;38.732;-121.358;2023-10-13T03:23:48;31.10;;;29.40;;
49784;SDS011;35679;38.732;-121.358;2023-10-13T03:26:37;32.75;;;31.15;;
49784;SDS011;35679;38.732;-121.358;2023-10-13T03:29:33;30.25;;;28.65;;
49784;SDS011;35679;38.732;-121.358;2023-10-13T03:32:24;32.55;;;30.95;;
49784;SDS011;35679;38.732;-121.358;2023-10-13T03:35:15;31.80;;;30.20;;
49784;SDS011;35679;38.732;-121.358;2023-10-13T03:38:13;11.35;;;10.65;;
49784;SDS011;35679;38.732;-121.358;2023-10-13T03:41:05;11.60;;;10.90;;
49784;SDS011;35679;38.732;-121.358;2023-10-13T03:43:56;11.75;;;10.95;;
49784;SDS011;35679;38.732;-121.358;2023-10-13T03:46:57;12.30;;;11.50;;
49784;SDS011;35679;38.732;-121.358;2023-10-13T03:49:57;12.45;;;11.75;;
49784;SDS011;35679;38.732;-121.358;2023-10-13T03:53:05;10.88;;;10.27;;
49784;SDS011;35679;38.732;-121.358;2023-10-13T03:55:54;11.65;;;10.80;;
49784;SDS011;35679;38.732;-121.358;2023-10-13T03:59:02;11.90;;;11.20;;
49784;SDS011;35679;38.732;-121.358;2023-10-13T04:01:55;12.18;;;11.43;;
49784;SDS011;35679;38.732;-121.358;2023-10-13T04:04:48;11.80;;;11.15;;
49784;SDS011;35679;38.732;-121.358;2023-10-13T04:07:41;11.88;;;11.18;;
49784;SDS011;35679;38.732;-121.358;2023-10-13T04:10:51;11.20;;;10.60;;
49784;SDS011;35679;38.732;-121.358;2023-10-13T04:13:41;11.77;;;11.18;;
49784;SDS011;35679;38.732;-121.358;2023-10-13T04:16:48;13.15;;;12.35;;
49784;SDS011;35679;38.732;-121.358;2023-10-13T04:19:43;14.05;;;13.15;;
49784;SDS011;35679;38.732;-121.358;2023-10-13T04:22:51;13.15;;;12.35;;
49784;SDS011;35679;38.732;-121.358;2023-10-13T04:25:40;13.20;;;12.50;;
49784;SDS011;35679;38.732;-121.358;2023-10-13T04:28:29;13.23;;;12.50;;
49784;SDS011;35679;38.732;-121.358;2023-10-13T04:31:26;12.60;;;11.80;;
49784;SDS011;35679;38.732;-121.358;2023-10-13T04:34:34;13.10;;;12.30;;
49784;SDS011;35679;38.732;-121.358;2023-10-13T04:37:28;13.05;;;12.35;;
49784;SDS011;35679;38.732;-121.358;2023-10-13T04:40:18;13.63;;;12.82;;
49784;SDS011;35679;38.732;-121.358;2023-10-13T04:43:13;2.70;;;2.50;;
49784;SDS011;35679;38.732;-121.358;2023-10-13T04:46:21;2.90;;;2.70;;
49784;SDS011;35679;38.732;-121.358;2023-10-13T04:49:45;3.80;;;2.80;;
49784;SDS011;35679;38.732;-121.358;2023-10-13T04:52:35;2.70;;;2.50;;
49784;SDS011;35679;38.732;-121.358;2023-10-13T04:55:48;2.63;;;2.42;;
49784;SDS011;35679;38.732;-121.358;2023-10-13T04:59:15;2.10;;;1.90;;
49784;SDS011;35679;38.732;-121.358;2023-10-13T05:02:23;2.53;;;2.15;;
49784;SDS011;35679;38.732;-121.358;2023-10-13T05:05:25;2.15;;;2.03;;
49784;SDS011;35679;38.732;-121.358;2023-10-13T05:08:33;2.53;;;2.33;;
49784;SDS011;35679;38.732;-121.358;2023-10-13T05:11:41;2.42;;;2.20;;
49784;SDS011;35679;38.732;-121.358;2023-10-13T05:14:49;2.30;;;1.85;;
49784;SDS011;35679;38.732;-121.358;2023-10-13T05:17:56;2.85;;;2.20;;
49784;SDS011;35679;38.732;-121.358;2023-10-13T05:21:04;5.15;;;2.25;;
49784;SDS011;35679;38.732;-121.358;2023-10-13T05:24:12;2.90;;;2.40;;
49784;SDS011;35679;38.732;-121.358;2023-10-13T05:27:20;2.45;;;2.25;;
49784;SDS011;35679;38.732;-121.358;2023-10-13T05:30:28;4.20;;;2.20;;
49784;SDS011;35679;38.732;-121.358;2023-10-13T05:33:35;4.60;;;2.30;;
49784;SDS011;35679;38.732;-121.358;2023-10-13T05:36:44;3.72;;;2.38;;
49784;SDS011;35679;38.732;-121.358;2023-10-13T05:39:52;2.38;;;2.17;;
49784;SDS011;35679;38.732;-121.358;2023-10-13T05:42:59;2.50;;;2.30;;
49784;SDS011;35679;38.732;-121.358;2023-10-13T05:46:07;2.70;;;2.17;;
49784;SDS011;35679;38.732;-121.358;2023-10-13T05:49:28;2.35;;;2.17;;
49784;SDS011;35679;38.732;-121.358;2023-10-13T05:52:38;2.63;;;1.80;;
49784;SDS011;35679;38.732;-121.358;2023-10-13T05:55:46;3.30;;;2.20;;
49784;SDS011;35679;38.732;-121.358;2023-10-13T05:58:56;2.25;;;2.08;;
49784;SDS011;35679;38.732;-121.358;2023-10-13T06:02:03;4.38;;;2.40;;
49784;SDS011;35679;38.732;-121.358;2023-10-13T06:05:12;3.55;;;2.30;;
49784;SDS011;35679;38.732;-121.358;2023-10-13T06:08:20;2.38;;;2.13;;
49784;SDS011;35679;38.732;-121.358;2023-10-13T06:11:28;3.65;;;2.10;;
49784;SDS011;35679;38.732;-121.358;2023-10-13T06:14:35;2.92;;;2.40;;
49784;SDS011;35679;38.732;-121.358;2023-10-13T06:17:43;2.53;;;2.25;;
49784;SDS011;35679;38.732;-121.358;2023-10-13T06:20:51;4.78;;;2.30;;
49784;SDS011;35679;38.732;-121.358;2023-10-13T06:23:59;3.78;;;2.38;;
49784;SDS011;35679;38.732;-121.358;2023-10-13T06:27:06;2.67;;;2.47;;
49784;SDS011;35679;38.732;-121.358;2023-10-13T06:30:14;2.60;;;2.40;;
49784;SDS011;35679;38.732;-121.358;2023-10-13T06:33:05;2.25;;;2.08;;
49784;SDS011;35679;38.732;-121.358;2023-10-13T06:35:56;2.80;;;1.90;;
49784;SDS011;35679;38.732;-121.358;2023-10-13T06:38:47;2.58;;;2.38;;
49784;SDS011;35679;38.732;-121.358;2023-10-13T06:41:43;2.75;;;2.20;;
49784;SDS011;35679;38.732;-121.358;2023-10-13T06:44:33;2.38;;;2.17;;
49784;SDS011;35679;38.732;-121.358;2023-10-13T06:47:23;2.35;;;2.10;;
49784;SDS011;35679;38.732;-121.358;2023-10-13T06:50:13;2.28;;;2.00;;
49784;SDS011;35679;38.732;-121.358;2023-10-13T06:53:04;2.20;;;2.00;;
49784;SDS011;35679;38.732;-121.358;2023-10-13T06:55:54;2.20;;;2.00;;
49784;SDS011;35679;38.732;-121.358;2023-10-13T06:58:47;3.83;;;2.00;;
49784;SDS011;35679;38.732;-121.358;2023-10-13T07:01:40;1.98;;;1.85;;
49784;SDS011;35679;38.732;-121.358;2023-10-13T07:04:30;2.35;;;2.15;;
49784;SDS011;35679;38.732;-121.358;2023-10-13T07:07:20;2.22;;;2.13;;
49784;SDS011;35679;38.732;-121.358;2023-10-13T07:10:11;2.50;;;2.35;;
49784;SDS011;35679;38.732;-121.358;2023-10-13T07:13:01;2.47;;;2.28;;
49784;SDS011;35679;38.732;-121.358;2023-10-13T07:15:53;2.67;;;2.45;;
49784;SDS011;35679;38.732;-121.358;2023-10-13T07:19:02;2.72;;;2.53;;
49784;SDS011;35679;38.732;-121.358;2023-10-13T07:21:54;2.58;;;2.38;;
49784;SDS011;35679;38.732;-121.358;2023-10-13T07:24:49;3.63;;;2.70;;
49784;SDS011;35679;38.732;-121.358;2023-10-13T07:27:39;2.70;;;2.35;;
49784;SDS011;35679;38.732;-121.358;2023-10-13T07:30:28;2.47;;;2.28;;
49784;SDS011;35679;38.732;-121.358;2023-10-13T07:33:19;2.70;;;2.22;;
49784;SDS011;35679;38.732;-121.358;2023-10-13T07:36:10;3.78;;;2.60;;
49784;SDS011;35679;38.732;-121.358;2023-10-13T07:39:28;3.83;;;2.47;;
49784;SDS011;35679;38.732;-121.358;2023-10-13T07:42:26;2.65;;;2.45;;
49784;SDS011;35679;38.732;-121.358;2023-10-13T07:45:27;3.90;;;2.80;;
49784;SDS011;35679;38.732;-121.358;2023-10-13T07:48:26;2.88;;;2.22;;
49784;SDS011;35679;38.732;-121.358;2023-10-13T07:51:16;4.05;;;2.70;;
49784;SDS011;35679;38.732;-121.358;2023-10-13T07:54:05;3.85;;;2.38;;
49784;SDS011;35679;38.732;-121.358;2023-10-13T07:56:59;2.40;;;2.20;;
49784;SDS011;35679;38.732;-121.358;2023-10-13T07:59:52;3.40;;;2.45;;
49784;SDS011;35679;38.732;-121.358;2023-10-13T08:02:41;3.53;;;2.58;;
49784;SDS011;35679;38.732;-121.358;2023-10-13T08:05:37;4.03;;;2.47;;
49784;SDS011;35679;38.732;-121.358;2023-10-13T08:08:45;3.97;;;2.55;;
49784;SDS011;35679;38.732;-121.358;2023-10-13T08:11:55;3.28;;;2.20;;
49784;SDS011;35679;38.732;-121.358;2023-10-13T08:14:45;2.70;;;2.50;;
49784;SDS011;35679;38.732;-121.358;2023-10-13T08:17:34;2.92;;;2.67;;
49784;SDS011;35679;38.732;-121.358;2023-10-13T08:20:24;2.90;;;2.60;;
49784;SDS011;35679;38.732;-121.358;2023-10-13T08:23:18;3.25;;;2.50;;
49784;SDS011;35679;38.732;-121.358;2023-10-13T08:26:23;2.60;;;2.40;;
49784;SDS011;35679;38.732;-121.358;2023-10-13T08:29:33;3.00;;;2.67;;
49784;SDS011;35679;38.732;-121.358;2023-10-13T08:32:40;5.32;;;2.90;;
49784;SDS011;35679;38.732;-121.358;2023-10-13T08:35:53;5.50;;;3.15;;
49784;SDS011;35679;38.732;-121.358;2023-10-13T08:39:04;3.70;;;2.90;;
49784;SDS011;35679;38.732;-121.358;2023-10-13T08:42:16;3.42;;;2.72;;
49784;SDS011;35679;38.732;-121.358;2023-10-13T08:45:12;3.35;;;2.50;;
49784;SDS011;35679;38.732;-121.358;2023-10-13T08:48:11;2.92;;;2.60;;
49784;SDS011;35679;38.732;-121.358;2023-10-13T08:51:04;4.10;;;3.00;;
49784;SDS011;35679;38.732;-121.358;2023-10-13T08:54:00;4.32;;;2.90;;
49784;SDS011;35679;38.732;-121.358;2023-10-13T08:56:57;4.00;;;3.22;;
49784;SDS011;35679;38.732;-121.358;2023-10-13T08:59:54;5.25;;;2.85;;
49784;SDS011;35679;38.732;-121.358;2023-10-13T09:02:43;5.55;;;3.17;;
49784;SDS011;35679;38.732;-121.358;2023-10-13T09:05:53;4.43;;;3.15;;
49784;SDS011;35679;38.732;-121.358;2023-10-13T09:09:03;5.38;;;2.80;;
49784;SDS011;35679;38.732;-121.358;2023-10-13T09:11:56;4.75;;;2.95;;
49784;SDS011;35679;38.732;-121.358;2023-10-13T09:14:58;3.88;;;2.97;;
49784;SDS011;35679;38.732;-121.358;2023-10-13T09:18:01;3.67;;;2.70;;
49784;SDS011;35679;38.732;-121.358;2023-10-13T09:21:04;6.93;;;2.95;;
49784;SDS011;35679;38.732;-121.358;2023-10-13T09:24:11;3.20;;;2.67;;
49784;SDS011;35679;38.732;-121.358;2023-10-13T09:27:11;5.80;;;2.65;;
49784;SDS011;35679;38.732;-121.358;2023-10-13T09:30:02;3.63;;;2.75;;
49784;SDS011;35679;38.732;-121.358;2023-10-13T09:33:06;3.28;;;2.42;;
49784;SDS011;35679;38.732;-121.358;2023-10-13T09:36:19;4.22;;;2.60;;
49784;SDS011;35679;38.732;-121.358;2023-10-13T09:39:09;2.60;;;2.40;;
49784;SDS011;35679;38.732;-121.358;2023-10-13T09:42:01;4.20;;;2.70;;
49784;SDS011;35679;38.732;-121.358;2023-10-13T09:44:52;2.60;;;2.40;;
49784;SDS011;35679;38.732;-121.358;2023-10-13T09:47:47;3.00;;;2.53;;
49784;SDS011;35679;38.732;-121.358;2023-10-13T09:50:42;3.25;;;2.65;;
49784;SDS011;35679;38.732;-121.358;2023-10-13T09:56:40;2.55;;;2.22;;
49784;SDS011;35679;38.732;-121.358;2023-10-13T09:59:45;3.88;;;2.60;;
49784;SDS011;35679;38.732;-121.358;2023-10-13T10:02:42;3.28;;;2.30;;
49784;SDS011;35679;38.732;-121.358;2023-10-13T10:05:33;4.30;;;2.50;;
49784;SDS011;35679;38.732;-121.358;2023-10-13T10:08:24;3.30;;;2.60;;
49784;SDS011;35679;38.732;-121.358;2023-10-13T10:11:56;2.55;;;2.35;;
49784;SDS011;35679;38.732;-121.358;2023-10-13T10:17:49;3.85;;;2.60;;
49784;SDS011;35679;38.732;-121.358;2023-10-13T10:20:42;3.13;;;2.38;;
49784;SDS011;35679;38.732;-121.358;2023-10-13T10:23:33;2.92;;;2.10;;
49784;SDS011;35679;38.732;-121.358;2023-10-13T10:26:28;2.28;;;2.13;;
49784;SDS011;35679;38.732;-121.358;2023-10-13T10:29:18;3.15;;;2.30;;
49784;SDS011;35679;38.732;-121.358;2023-10-13T10:32:14;3.30;;;2.20;;
49784;SDS011;35679;38.732;-121.358;2023-10-13T10:35:07;2.10;;;2.00;;
49784;SDS011;35679;38.732;-121.358;2023-10-13T10:38:10;2.60;;;2.40;;
49784;SDS011;35679;38.732;-121.358;2023-10-13T10:41:05;3.70;;;2.08;;
49784;SDS011;35679;38.732;-121.358;2023-10-13T10:43:55;2.15;;;2.05;;
49784;SDS011;35679;38.732;-121.358;2023-10-13T10:46:45;4.80;;;2.45;;
49784;SDS011;35679;38.732;-121.358;2023-10-13T10:49:46;2.42;;;2.22;;
49784;SDS011;35679;38.732;-121.358;2023-10-13T10:52:36;2.10;;;2.00;;
49784;SDS011;35679;38.732;-121.358;2023-10-13T10:55:27;2.65;;;2.08;;
49784;SDS011;35679;38.732;-121.358;2023-10-13T10:58:18;2.17;;;2.03;;
49784;SDS011;35679;38.732;-121.358;2023-10-13T11:01:27;2.53;;;1.75;;
49784;SDS011;35679;38.732;-121.358;2023-10-13T11:04:36;2.30;;;2.10;;
49784;SDS011;35679;38.732;-121.358;2023-10-13T11:07:46;2.75;;;2.38;;
49784;SDS011;35679;38.732;-121.358;2023-10-13T11:10:47;2.00;;;1.90;;
49784;SDS011;35679;38.732;-121.358;2023-10-13T11:13:54;2.40;;;2.10;;
49784;SDS011;35679;38.732;-121.358;2023-10-13T11:17:02;2.67;;;2.10;;
49784;SDS011;35679;38.732;-121.358;2023-10-13T11:20:08;2.25;;;1.98;;
49784;SDS011;35679;38.732;-121.358;2023-10-13T11:23:10;3.10;;;2.30;;
49784;SDS011;35679;38.732;-121.358;2023-10-13T11:26:00;4.72;;;2.08;;
49784;SDS011;35679;38.732;-121.358;2023-10-13T11:28:50;2.63;;;2.35;;
49784;SDS011;35679;38.732;-121.358;2023-10-13T11:31:40;2.28;;;2.17;;
49784;SDS011;35679;38.732;-121.358;2023-10-13T11:34:30;2.03;;;1.83;;
49784;SDS011;35679;38.732;-121.358;2023-10-13T11:37:28;2.03;;;1.92;;
49784;SDS011;35679;38.732;-121.358;2023-10-13T11:40:26;3.03;;;1.95;;
49784;SDS011;35679;38.732;-121.358;2023-10-13T11:43:33;2.90;;;2.13;;
49784;SDS011;35679;38.732;-121.358;2023-10-13T11:46:33;1.90;;;1.80;;
49784;SDS011;35679;38.732;-121.358;2023-10-13T11:49:26;2.88;;;1.90;;
49784;SDS011;35679;38.732;-121.358;2023-10-13T11:52:18;2.22;;;2.00;;
49784;SDS011;35679;38.732;-121.358;2023-10-13T11:55:07;2.63;;;2.10;;
49784;SDS011;35679;38.732;-121.358;2023-10-13T11:57:58;3.25;;;2.00;;
49784;SDS011;35679;38.732;-121.358;2023-10-13T12:00:47;1.90;;;1.80;;
49784;SDS011;35679;38.732;-121.358;2023-10-13T12:03:42;2.20;;;2.00;;
49784;SDS011;35679;38.732;-121.358;2023-10-13T12:06:51;2.33;;;2.15;;
49784;SDS011;35679;38.732;-121.358;2023-10-13T12:10:00;2.75;;;2.13;;
49784;SDS011;35679;38.732;-121.358;2023-10-13T12:12:50;2.22;;;2.03;;
49784;SDS011;35679;38.732;-121.358;2023-10-13T12:18:39;2.50;;;1.80;;
49784;SDS011;35679;38.732;-121.358;2023-10-13T12:21:29;2.88;;;2.00;;
49784;SDS011;35679;38.732;-121.358;2023-10-13T12:24:19;2.00;;;1.90;;
49784;SDS011;35679;38.732;-121.358;2023-10-13T12:27:24;1.98;;;1.88;;
49784;SDS011;35679;38.732;-121.358;2023-10-13T12:30:23;1.95;;;1.85;;
49784;SDS011;35679;38.732;-121.358;2023-10-13T12:33:37;2.40;;;1.73;;
49784;SDS011;35679;38.732;-121.358;2023-10-13T12:36:28;2.20;;;2.00;;
49784;SDS011;35679;38.732;-121.358;2023-10-13T12:39:29;2.22;;;2.03;;
49784;SDS011;35679;38.732;-121.358;2023-10-13T12:42:37;2.00;;;1.90;;
49784;SDS011;35679;38.732;-121.358;2023-10-13T12:45:46;3.40;;;1.95;;
49784;SDS011;35679;38.732;-121.358;2023-10-13T12:48:54;2.67;;;1.70;;
49784;SDS011;35679;38.732;-121.358;2023-10-13T12:51:55;2.50;;;2.03;;
49784;SDS011;35679;38.732;-121.358;2023-10-13T12:54:45;2.25;;;2.00;;
49784;SDS011;35679;38.732;-121.358;2023-10-13T12:57:36;2.40;;;2.20;;
49784;SDS011;35679;38.732;-121.358;2023-10-13T13:00:31;2.47;;;2.00;;
49784;SDS011;35679;38.732;-121.358;2023-10-13T13:03:21;3.30;;;2.22;;
49784;SDS011;35679;38.732;-121.358;2023-10-13T13:06:18;2.92;;;2.03;;
49784;SDS011;35679;38.732;-121.358;2023-10-13T13:09:14;2.20;;;2.08;;
49784;SDS011;35679;38.732;-121.358;2023-10-13T13:12:04;3.22;;;2.10;;
49784;SDS011;35679;38.732;-121.358;2023-10-13T13:14:55;2.05;;;1.95;;
49784;SDS011;35679;38.732;-121.358;2023-10-13T13:17:44;2.17;;;2.08;;
49784;SDS011;35679;38.732;-121.358;2023-10-13T13:20:34;2.58;;;2.38;;
49784;SDS011;35679;38.732;-121.358;2023-10-13T13:23:27;4.25;;;2.38;;
49784;SDS011;35679;38.732;-121.358;2023-10-13T13:26:19;2.70;;;2.53;;
49784;SDS011;35679;38.732;-121.358;2023-10-13T13:29:10;2.40;;;2.30;;
49784;SDS011;35679;38.732;-121.358;2023-10-13T13:31:59;3.30;;;2.35;;
49784;SDS011;35679;38.732;-121.358;2023-10-13T13:34:49;2.65;;;2.45;;
49784;SDS011;35679;38.732;-121.358;2023-10-13T13:37:56;2.70;;;2.60;;
49784;SDS011;35679;38.732;-121.358;2023-10-13T13:40:53;3.08;;;2.88;;
49784;SDS011;35679;38.732;-121.358;2023-10-13T13:46:43;3.53;;;3.22;;
49784;SDS011;35679;38.732;-121.358;2023-10-13T13:49:32;2.60;;;2.40;;
49784;SDS011;35679;38.732;-121.358;2023-10-13T13:52:28;20.50;;;19.50;;
49784;SDS011;35679;38.732;-121.358;2023-10-13T13:55:22;20.80;;;19.80;;
49784;SDS011;35679;38.732;-121.358;2023-10-13T13:58:12;20.67;;;19.67;;
49784;SDS011;35679;38.732;-121.358;2023-10-13T14:01:02;21.00;;;19.80;;
49784;SDS011;35679;38.732;-121.358;2023-10-13T14:04:02;20.10;;;19.10;;
49784;SDS011;35679;38.732;-121.358;2023-10-13T14:06:55;20.95;;;19.73;;
49784;SDS011;35679;38.732;-121.358;2023-10-13T14:09:45;21.20;;;20.20;;
49784;SDS011;35679;38.732;-121.358;2023-10-13T14:12:39;19.35;;;18.45;;
49784;SDS011;35679;38.732;-121.358;2023-10-13T14:15:32;19.83;;;18.83;;
49784;SDS011;35679;38.732;-121.358;2023-10-13T14:18:32;18.40;;;17.45;;
49784;SDS011;35679;38.732;-121.358;2023-10-13T14:21:22;19.73;;;18.63;;
49784;SDS011;35679;38.732;-121.358;2023-10-13T14:24:12;19.15;;;18.15;;
49784;SDS011;35679;38.732;-121.358;2023-10-13T14:27:04;17.77;;;16.88;;
49784;SDS011;35679;38.732;-121.358;2023-10-13T14:32:46;18.90;;;18.00;;
49784;SDS011;35679;38.732;-121.358;2023-10-13T14:35:36;19.60;;;18.60;;
49784;SDS011;35679;38.732;-121.358;2023-10-13T14:38:26;18.80;;;17.80;;
49784;SDS011;35679;38.732;-121.358;2023-10-13T14:41:16;18.67;;;17.63;;
49784;SDS011;35679;38.732;-121.358;2023-10-13T14:44:06;18.98;;;18.05;;
49784;SDS011;35679;38.732;-121.358;2023-10-13T14:46:56;27.05;;;25.55;;
49784;SDS011;35679;38.732;-121.358;2023-10-13T14:49:45;2.55;;;2.35;;
49784;SDS011;35679;38.732;-121.358;2023-10-13T14:52:36;2.53;;;2.30;;
49784;SDS011;35679;38.732;-121.358;2023-10-13T14:55:25;2.92;;;2.72;;
49784;SDS011;35679;38.732;-121.358;2023-10-13T14:58:27;3.28;;;2.83;;
49784;SDS011;35679;38.732;-121.358;2023-10-13T15:01:17;4.25;;;2.90;;
49784;SDS011;35679;38.732;-121.358;2023-10-13T15:04:08;3.10;;;2.80;;
49784;SDS011;35679;38.732;-121.358;2023-10-13T15:07:01;4.20;;;2.45;;
49784;SDS011;35679;38.732;-121.358;2023-10-13T15:09:51;2.90;;;2.70;;
49784;SDS011;35679;38.732;-121.358;2023-10-13T15:12:41;4.35;;;2.90;;
49784;SDS011;35679;38.732;-121.358;2023-10-13T15:15:32;3.60;;;2.83;;
49784;SDS011;35679;38.732;-121.358;2023-10-13T15:18:24;4.00;;;2.13;;
49784;SDS011;35679;38.732;-121.358;2023-10-13T15:24:19;3.05;;;2.85;;
49784;SDS011;35679;38.732;-121.358;2023-10-13T15:27:19;3.25;;;2.60;;
49784;SDS011;35679;38.732;-121.358;2023-10-13T15:30:10;4.28;;;2.65;;
49784;SDS011;35679;38.732;-121.358;2023-10-13T15:33:10;3.08;;;2.78;;
49784;SDS011;35679;38.732;-121.358;2023-10-13T15:36:00;3.03;;;2.70;;
49784;SDS011;35679;38.732;-121.358;2023-10-13T15:38:52;3.00;;;2.80;;
49784;SDS011;35679;38.732;-121.358;2023-10-13T15:41:42;3.70;;;3.38;;
49784;SDS011;35679;38.732;-121.358;2023-10-13T15:44:33;3.30;;;3.00;;
49784;SDS011;35679;38.732;-121.358;2023-10-13T15:47:23;3.30;;;3.00;;
49784;SDS011;35679;38.732;-121.358;2023-10-13T15:50:15;3.00;;;2.80;;
49784;SDS011;35679;38.732;-121.358;2023-10-13T15:53:09;3.28;;;2.97;;
49784;SDS011;35679;38.732;-121.358;2023-10-13T15:56:02;3.58;;;3.20;;
49784;SDS011;35679;38.732;-121.358;2023-10-13T15:58:59;3.20;;;2.97;;
49784;SDS011;35679;38.732;-121.358;2023-10-13T16:01:55;3.47;;;2.85;;
49784;SDS011;35679;38.732;-121.358;2023-10-13T16:04:46;3.60;;;2.83;;
49784;SDS011;35679;38.732;-121.358;2023-10-13T16:07:36;3.08;;;2.88;;
49784;SDS011;35679;38.732;-121.358;2023-10-13T16:10:27;3.25;;;2.70;;
49784;SDS011;35679;38.732;-121.358;2023-10-13T16:13:17;3.10;;;2.90;;
49784;SDS011;35679;38.732;-121.358;2023-10-13T16:16:18;2.80;;;2.70;;
49784;SDS011;35679;38.732;-121.358;2023-10-13T16:19:11;2.75;;;2.65;;
49784;SDS011;35679;38.732;-121.358;2023-10-13T16:22:00;2.95;;;2.75;;
49784;SDS011;35679;38.732;-121.358;2023-10-13T16:24:50;3.15;;;2.85;;
49784;SDS011;35679;38.732;-121.358;2023-10-13T16:27:55;7.30;;;2.90;;
49784;SDS011;35679;38.732;-121.358;2023-10-13T16:30:44;3.63;;;2.97;;
49784;SDS011;35679;38.732;-121.358;2023-10-13T16:33:34;3.65;;;3.35;;
49784;SDS011;35679;38.732;-121.358;2023-10-13T16:36:25;3.28;;;2.90;;
49784;SDS011;35679;38.732;-121.358;2023-10-13T16:39:14;3.33;;;3.00;;
49784;SDS011;35679;38.732;-121.358;2023-10-13T16:42:04;3.58;;;3.22;;
49784;SDS011;35679;38.732;-121.358;2023-10-13T16:44:56;3.13;;;2.92;;
49784;SDS011;35679;38.732;-121.358;2023-10-13T16:47:48;3.50;;;3.30;;
49784;SDS011;35679;38.732;-121.358;2023-10-13T16:50:39;3.35;;;3.10;;
49784;SDS011;35679;38.732;-121.358;2023-10-13T16:53:30;3.53;;;3.22;;
49784;SDS011;35679;38.732;-121.358;2023-10-13T16:56:19;3.72;;;2.88;;
49784;SDS011;35679;38.732;-121.358;2023-10-13T16:59:10;3.30;;;3.00;;
49784;SDS011;35679;38.732;-121.358;2023-10-13T17:02:00;5.03;;;3.08;;
49784;SDS011;35679;38.732;-121.358;2023-10-13T17:04:52;3.42;;;3.22;;
49784;SDS011;35679;38.732;-121.358;2023-10-13T17:10:40;2.97;;;1.95;;
49784;SDS011;35679;38.732;-121.358;2023-10-13T17:13:29;3.58;;;2.20;;
49784;SDS011;35679;38.732;-121.358;2023-10-13T17:16:22;2.28;;;2.08;;